Time;durP1;ratioP1;P1;durP2;ratioP2;P2;SDS_P1;SDS_P2;PMS_P1;PMS_P2;Temp;Humidity;BMP_temperature;BMP_pressure;BME280_temperature;BME280_humidity;BME280_pressure;Samples;Min_cycle;Max_cycle;Signal;HPM_P1;HPM_P2
2022/12/13 00:01:53;;;;;;;39.13;23.48;;;;;;;-6.46;100.00;101066.25;5064059;28;20380;-67
2022/12/13 00:04:20;;;;;;;36.47;22.35;;;;;;;-6.42;100.00;101063.13;5067328;28;20115;-68
2022/12/13 00:06:46;;;;;;;36.88;22.80;;;;;;;-6.46;100.00;101055.94;5064841;28;20036;-68
2022/12/13 00:09:14;;;;;;;36.53;23.10;;;;;;;-6.51;100.00;101059.84;5066058;28;20025;-68
2022/12/13 00:11:39;;;;;;;36.88;23.05;;;;;;;-6.52;100.00;101056.38;5065202;28;20107;-68
2022/12/13 00:14:04;;;;;;;37.15;23.52;;;;;;;-6.51;100.00;101057.25;5065469;28;20164;-68
2022/12/13 00:16:30;;;;;;;38.88;24.23;;;;;;;-6.53;100.00;101063.97;5066439;28;20496;-68
2022/12/13 00:18:58;;;;;;;42.22;24.83;;;;;;;-6.52;100.00;101051.22;5064044;28;20392;-69
2022/12/13 00:21:26;;;;;;;37.38;23.55;;;;;;;-6.55;100.00;101055.22;5066953;28;20107;-66
2022/12/13 00:23:52;;;;;;;39.25;23.80;;;;;;;-6.60;100.00;101051.44;5059595;28;20033;-66
2022/12/13 00:26:20;;;;;;;37.95;24.52;;;;;;;-6.63;100.00;101044.38;5066670;28;20025;-67
2022/12/13 00:28:48;;;;;;;40.65;24.90;;;;;;;-6.62;100.00;101050.44;5064289;28;20028;-67
2022/12/13 00:31:14;;;;;;;38.35;24.02;;;;;;;-6.71;100.00;101046.34;5065842;28;20033;-67
2022/12/13 00:33:39;;;;;;;36.83;23.02;;;;;;;-6.81;100.00;101054.16;5064732;28;20036;-69
2022/12/13 00:36:06;;;;;;;38.40;23.85;;;;;;;-6.82;100.00;101054.91;5064723;28;20033;-67
2022/12/13 00:38:32;;;;;;;36.83;23.63;;;;;;;-6.88;100.00;101050.19;5064836;28;20054;-66
2022/12/13 00:40:58;;;;;;;37.70;23.42;;;;;;;-6.87;100.00;101045.97;5063775;28;20021;-67
2022/12/13 00:43:23;;;;;;;37.05;23.40;;;;;;;-6.88;100.00;101051.88;5065438;28;20046;-66
2022/12/13 00:45:48;;;;;;;37.08;23.58;;;;;;;-6.89;100.00;101053.53;5063623;28;20037;-67
2022/12/13 00:48:14;;;;;;;39.50;26.00;;;;;;;-6.88;100.00;101051.88;5064948;28;20053;-67
2022/12/13 00:50:39;;;;;;;37.83;24.50;;;;;;;-6.87;100.00;101051.13;5063330;28;20369;-66
2022/12/13 00:53:05;;;;;;;37.72;24.70;;;;;;;-6.94;100.00;101046.28;5064236;28;20025;-67
2022/12/13 00:55:30;;;;;;;39.83;24.23;;;;;;;-7.00;100.00;101046.69;5065896;28;20041;-67
2022/12/13 00:57:56;;;;;;;36.50;22.50;;;;;;;-7.05;100.00;101040.28;5061785;28;20052;-68
2022/12/13 01:00:21;;;;;;;37.20;23.10;;;;;;;-7.06;100.00;101044.53;5066618;28;20037;-67
2022/12/13 01:02:47;;;;;;;36.45;22.60;;;;;;;-7.08;100.00;101043.50;5063448;28;20036;-67
2022/12/13 01:05:12;;;;;;;36.97;23.52;;;;;;;-7.08;100.00;101040.94;5065068;28;20036;-69
2022/12/13 01:07:39;;;;;;;38.53;24.48;;;;;;;-7.10;100.00;101042.50;5064473;28;20387;-68
2022/12/13 01:10:06;;;;;;;39.90;25.25;;;;;;;-7.10;100.00;101044.19;5064153;28;20388;-68
2022/12/13 01:12:33;;;;;;;36.75;24.15;;;;;;;-7.14;100.00;101040.44;5065262;28;20044;-68
2022/12/13 01:14:58;;;;;;;39.25;24.02;;;;;;;-7.11;100.00;101038.13;5062896;28;20032;-68
2022/12/13 01:17:23;;;;;;;36.40;23.00;;;;;;;-7.06;100.00;101033.34;5066202;28;20032;-68
2022/12/13 01:19:49;;;;;;;39.45;24.23;;;;;;;-7.01;100.00;101032.91;5062721;28;20119;-68
2022/12/13 01:22:15;;;;;;;41.42;25.38;;;;;;;-7.02;100.00;101038.84;5064908;28;20032;-68
2022/12/13 01:24:40;;;;;;;41.50;24.75;;;;;;;-7.06;100.00;101039.38;5064017;28;20032;-68
2022/12/13 01:27:06;;;;;;;41.58;25.00;;;;;;;-7.07;100.00;101029.00;5063765;28;20140;-68
2022/12/13 01:29:31;;;;;;;39.63;24.75;;;;;;;-7.02;100.00;101020.88;5065457;28;20039;-67
2022/12/13 01:31:57;;;;;;;40.58;25.10;;;;;;;-6.97;100.00;101038.28;5062400;28;20058;-67
2022/12/13 01:34:23;;;;;;;39.45;24.30;;;;;;;-7.06;100.00;101035.91;5065898;28;20110;-69
2022/12/13 01:36:49;;;;;;;38.83;25.30;;;;;;;-7.02;100.00;101041.44;5062916;28;20033;-68
2022/12/13 01:39:18;;;;;;;40.45;25.10;;;;;;;-7.05;100.00;101036.06;5064608;28;20426;-68
2022/12/13 01:41:46;;;;;;;39.03;24.67;;;;;;;-7.06;100.00;101039.38;5063309;28;20067;-68
2022/12/13 01:44:49;;;;;;;39.72;25.17;;;;;;;-7.06;100.00;101039.38;5064301;28;20041;-70
2022/12/13 01:47:18;;;;;;;41.13;25.15;;;;;;;-7.11;100.00;101043.25;5063158;28;20077;-70
2022/12/13 01:49:44;;;;;;;40.22;25.10;;;;;;;-7.14;100.00;101044.72;5063100;28;20052;-66
2022/12/13 01:52:12;;;;;;;40.08;24.50;;;;;;;-7.19;100.00;101047.81;5062490;28;20492;-66
2022/12/13 01:54:42;;;;;;;38.40;24.10;;;;;;;-7.22;100.00;101047.56;5063656;28;20031;-67
2022/12/13 01:57:09;;;;;;;39.85;24.50;;;;;;;-7.26;100.00;101049.78;5063301;28;20090;-67
2022/12/13 01:59:37;;;;;;;39.00;23.58;;;;;;;-7.31;100.00;101040.81;5063197;28;20024;-66
2022/12/13 02:02:04;;;;;;;40.15;24.95;;;;;;;-7.30;100.00;101040.91;5062569;28;20025;-66
2022/12/13 02:04:54;;;;;;;38.15;24.50;;;;;;;-7.32;100.00;101039.91;5064594;28;20033;-71
2022/12/13 02:07:25;;;;;;;38.97;23.73;;;;;;;-7.37;100.00;101037.00;5064698;28;20031;-66
2022/12/13 02:09:54;;;;;;;40.10;24.35;;;;;;;-7.32;100.00;101039.00;5061995;28;20028;-66
2022/12/13 02:12:20;;;;;;;38.33;23.30;;;;;;;-7.33;100.00;101047.50;5064805;28;20028;-66
2022/12/13 02:14:45;;;;;;;38.60;24.13;;;;;;;-7.29;100.00;101036.69;5062186;28;20033;-67
2022/12/13 02:17:28;;;;;;;40.72;25.55;;;;;;;-7.33;100.00;101038.13;5063491;28;20468;-66
2022/12/13 02:20:20;;;;;;;39.55;25.00;;;;;;;-7.31;100.00;101040.81;5057987;28;20025;-66
2022/12/13 02:23:14;;;;;;;40.78;25.98;;;;;;;-7.32;100.00;101036.44;5063107;28;20029;-66
2022/12/13 02:25:51;;;;;;;39.00;25.13;;;;;;;-7.38;100.00;101035.19;5061730;28;20074;-66
2022/12/13 02:28:46;;;;;;;39.63;25.35;;;;;;;-7.34;100.00;101038.88;5062106;28;20052;-66
2022/12/13 02:31:28;;;;;;;40.80;25.38;;;;;;;-7.35;100.00;101034.53;5056790;28;20120;-66
2022/12/13 02:34:07;;;;;;;39.50;25.27;;;;;;;-7.38;100.00;101045.47;5057268;28;20117;-66
2022/12/13 02:37:00;;;;;;;40.20;24.75;;;;;;;-7.38;100.00;101040.31;5059184;28;20102;-66
2022/12/13 02:39:29;;;;;;;;;;;;;;;-7.36;100.00;101041.31;5047202;28;20503;-66
2022/12/13 02:42:05;;;;;;;40.38;25.60;;;;;;;-7.39;100.00;101030.81;5057483;28;19916;-65
2022/12/13 02:44:41;;;;;;;39.65;24.90;;;;;;;-7.44;100.00;101031.22;5058820;28;20036;-66
2022/12/13 02:47:12;;;;;;;42.75;27.08;;;;;;;-7.49;100.00;101025.72;5062807;28;20067;-66
2022/12/13 02:49:42;;;;;;;40.60;25.70;;;;;;;-7.54;100.00;101014.22;5062447;28;20142;-66
2022/12/13 02:52:11;;;;;;;40.42;25.20;;;;;;;-7.54;100.00;101024.47;5062668;28;20505;-66
2022/12/13 02:54:37;;;;;;;39.65;25.10;;;;;;;-7.57;100.00;101021.63;5062602;28;20055;-66
2022/12/13 02:57:02;;;;;;;41.03;24.95;;;;;;;-7.55;100.00;101015.84;5063580;28;20113;-66
2022/12/13 02:59:37;;;;;;;40.47;24.92;;;;;;;-7.51;100.00;101018.66;5060767;28;20480;-66
2022/12/13 03:02:16;;;;;;;41.35;25.50;;;;;;;-7.57;100.00;101013.94;5063694;28;20024;-66
2022/12/13 03:08:28;;;;;;;42.28;25.92;;;;;;;-7.61;100.00;101009.34;5062955;28;20078;-67
2022/12/13 03:11:14;;;;;;;39.53;24.83;;;;;;;-7.63;100.00;101006.66;5058219;28;20029;-67
2022/12/13 03:13:55;;;;;;;38.67;24.10;;;;;;;-7.63;100.00;101005.75;5064695;28;20025;-66
2022/12/13 03:16:27;;;;;;;40.58;25.48;;;;;;;-7.61;100.00;101010.25;5064972;28;20186;-66
2022/12/13 03:18:56;;;;;;;39.78;25.00;;;;;;;-7.60;100.00;101006.00;5060543;28;20476;-69
2022/12/13 03:21:21;;;;;;;41.47;25.98;;;;;;;-7.60;100.00;101012.03;5066953;28;20031;-69
2022/12/13 03:23:47;;;;;;;44.55;27.77;;;;;;;-7.61;100.00;101014.50;5065226;28;20037;-70
2022/12/13 03:26:17;;;;;;;38.63;24.70;;;;;;;-7.69;100.00;101011.28;5066702;28;20037;-70
2022/12/13 03:28:42;;;;;;;39.88;24.60;;;;;;;-7.72;100.00;101011.97;5066072;28;20040;-69
2022/12/13 03:31:08;;;;;;;41.67;25.73;;;;;;;-7.63;100.00;101006.66;5066228;28;20029;-69
2022/12/13 03:33:34;;;;;;;39.50;24.73;;;;;;;-7.71;100.00;101010.28;5066979;28;20033;-69
2022/12/13 03:36:00;;;;;;;41.25;25.73;;;;;;;-7.68;100.00;101007.97;5065082;28;20033;-69
2022/12/13 03:38:26;;;;;;;42.05;26.35;;;;;;;-7.75;100.00;101006.56;5066558;28;20036;-70
2022/12/13 03:40:58;;;;;;;40.65;25.98;;;;;;;-7.72;100.00;101011.97;5064397;28;20086;-70
2022/12/13 03:43:24;;;;;;;40.47;24.58;;;;;;;-7.69;100.00;101006.16;5060454;28;20060;-70
2022/12/13 03:45:50;;;;;;;40.78;25.27;;;;;;;-7.63;100.00;101010.88;5065891;28;20064;-69
2022/12/13 03:48:16;;;;;;;43.33;27.63;;;;;;;-7.60;100.00;101006.00;5064904;28;20502;-70
2022/12/13 03:50:41;;;;;;;41.97;26.40;;;;;;;-7.67;100.00;101001.13;5066295;28;20079;-69
2022/12/13 03:53:06;;;;;;;40.40;25.48;;;;;;;-7.66;100.00;101002.94;5066415;28;20024;-68
2022/12/13 03:55:32;;;;;;;40.35;25.75;;;;;;;-7.64;100.00;101003.97;5063373;28;20032;-68
2022/12/13 03:57:57;;;;;;;42.75;26.30;;;;;;;-7.67;100.00;100996.00;5067708;28;20033;-69
2022/12/13 04:00:22;;;;;;;42.63;26.17;;;;;;;-7.68;100.00;100994.25;5059852;28;20099;-69
2022/12/13 04:02:48;;;;;;;40.30;25.92;;;;;;;-7.68;100.00;101001.94;5066884;28;20032;-66
2022/12/13 04:05:13;;;;;;;42.25;26.23;;;;;;;-7.70;100.00;100996.69;5065286;28;20025;-66
2022/12/13 04:07:39;;;;;;;42.45;27.30;;;;;;;-7.64;100.00;100998.84;5065500;28;20028;-66
2022/12/13 04:10:05;;;;;;;42.40;26.85;;;;;;;-7.64;100.00;100999.72;5065108;28;20025;-66
2022/12/13 04:15:14;;;;;;;42.38;27.23;;;;;;;-7.63;100.00;100998.97;5065310;28;20390;-66
2022/12/13 04:17:40;;;;;;;42.08;27.63;;;;;;;-7.60;100.00;100993.16;5065515;28;20033;-66
2022/12/13 04:20:06;;;;;;;43.17;27.30;;;;;;;-7.66;100.00;100984.97;5065115;28;20112;-67
2022/12/13 04:22:31;;;;;;;44.17;27.05;;;;;;;-7.58;100.00;100996.75;5062946;28;20443;-66
2022/12/13 04:24:56;;;;;;;43.85;27.65;;;;;;;-7.62;100.00;100987.00;5066972;28;20078;-66
2022/12/13 04:27:21;;;;;;;43.88;27.42;;;;;;;-7.61;100.00;100986.25;5063775;28;20033;-66
2022/12/13 04:29:47;;;;;;;43.45;28.00;;;;;;;-7.58;100.00;100984.81;5065973;28;20084;-66
2022/12/13 04:32:12;;;;;;;43.47;27.33;;;;;;;-7.60;100.00;100980.31;5064813;28;20037;-66
2022/12/13 04:34:38;;;;;;;43.47;27.60;;;;;;;-7.56;100.00;100985.84;5063885;28;20044;-66
2022/12/13 04:37:04;;;;;;;42.65;26.83;;;;;;;-7.52;100.00;100992.09;5065994;28;20470;-66
2022/12/13 04:39:29;;;;;;;41.58;26.58;;;;;;;-7.54;100.00;100989.41;5063418;28;20472;-66
2022/12/13 04:41:54;;;;;;;41.80;26.13;;;;;;;-7.54;100.00;100985.97;5065921;28;20036;-65
2022/12/13 04:44:20;;;;;;;41.50;25.92;;;;;;;-7.54;100.00;100988.53;5063451;28;20408;-66
2022/12/13 04:46:45;;;;;;;43.42;26.95;;;;;;;-7.55;100.00;100986.72;5065214;28;20132;-66
2022/12/13 04:49:10;;;;;;;42.38;27.50;;;;;;;-7.55;100.00;100976.44;5065248;28;20043;-66
2022/12/13 04:51:36;;;;;;;40.83;25.13;;;;;;;-7.62;100.00;100972.50;5064074;28;20108;-66
2022/12/13 04:54:01;;;;;;;43.17;27.20;;;;;;;-7.62;100.00;100982.75;5066183;28;20082;-66
2022/12/13 04:56:26;;;;;;;45.28;27.77;;;;;;;-7.57;100.00;100976.34;5063322;28;20035;-66
2022/12/13 04:58:52;;;;;;;43.80;27.45;;;;;;;-7.47;100.00;100982.19;5066096;28;20378;-66
2022/12/13 05:01:17;;;;;;;44.42;28.02;;;;;;;-7.53;100.00;100973.25;5064083;28;20028;-66
2022/12/13 05:03:43;;;;;;;42.13;26.70;;;;;;;-7.54;100.00;100984.28;5064688;28;20029;-65
2022/12/13 05:06:11;;;;;;;40.65;26.08;;;;;;;-7.61;100.00;100979.44;5064866;28;20025;-66
2022/12/13 05:08:37;;;;;;;41.05;25.45;;;;;;;-7.59;100.00;100976.97;5063865;28;20075;-66
2022/12/13 05:11:03;;;;;;;42.17;27.42;;;;;;;-7.80;100.00;100971.94;5065535;28;20442;-66
2022/12/13 05:13:29;;;;;;;41.38;26.27;;;;;;;-7.87;100.00;100974.78;5062641;28;20035;-66
2022/12/13 05:15:59;;;;;;;42.20;26.95;;;;;;;-7.92;100.00;100971.84;5066158;28;20534;-66
2022/12/13 05:18:25;;;;;;;43.05;26.45;;;;;;;-7.94;100.00;100965.69;5058962;28;20032;-69
2022/12/13 05:20:51;;;;;;;44.22;28.48;;;;;;;-7.87;100.00;100974.78;5064165;28;20024;-68
2022/12/13 05:23:18;;;;;;;41.63;26.55;;;;;;;-7.91;100.00;100968.53;5063522;28;20033;-69
2022/12/13 05:25:43;;;;;;;43.95;28.50;;;;;;;-7.88;100.00;100958.50;5064302;28;20028;-68
2022/12/13 05:28:08;;;;;;;43.92;27.75;;;;;;;-7.88;100.00;100957.59;5064325;28;20543;-68
2022/12/13 05:30:37;;;;;;;43.28;27.38;;;;;;;-7.85;100.00;100960.38;5063261;28;20435;-69
2022/12/13 05:33:02;;;;;;;42.83;27.27;;;;;;;-7.84;100.00;100954.50;5064845;28;20379;-68
2022/12/13 05:35:28;;;;;;;45.40;28.13;;;;;;;-7.84;100.00;100962.19;5062071;28;20029;-69
2022/12/13 05:37:53;;;;;;;44.70;28.30;;;;;;;-7.90;100.00;100952.31;5065822;28;20025;-68
2022/12/13 05:40:19;;;;;;;45.35;28.38;;;;;;;-7.90;100.00;100954.00;5061542;28;20033;-68
2022/12/13 05:42:44;;;;;;;45.63;28.27;;;;;;;-7.93;100.00;100949.53;5064073;28;20021;-68
2022/12/13 05:45:11;;;;;;;44.17;28.30;;;;;;;-7.88;100.00;100955.94;5063935;28;20031;-69
2022/12/13 05:47:36;;;;;;;45.03;28.23;;;;;;;-7.92;100.00;100951.31;5062626;28;20056;-68
2022/12/13 05:50:02;;;;;;;47.75;29.17;;;;;;;-7.94;100.00;100949.41;5064984;28;20036;-68
2022/12/13 05:52:27;;;;;;;47.58;28.77;;;;;;;-7.92;100.00;100942.72;5062231;28;20036;-68
2022/12/13 05:54:55;;;;;;;45.22;28.65;;;;;;;-7.99;100.00;100943.00;5065076;28;20021;-68
2022/12/13 05:57:21;;;;;;;41.83;27.25;;;;;;;-8.02;100.00;100937.63;5062163;28;20136;-68
2022/12/13 05:59:46;;;;;;;42.25;26.70;;;;;;;-8.08;100.00;100941.50;5064288;28;20440;-68
2022/12/13 06:02:11;;;;;;;41.78;27.85;;;;;;;-8.10;100.00;100950.72;5062164;28;20387;-67
2022/12/13 06:04:37;;;;;;;44.45;28.27;;;;;;;-8.18;100.00;100949.22;5062610;28;20037;-67
2022/12/13 06:07:02;;;;;;;41.40;26.67;;;;;;;-8.26;100.00;100957.97;5064758;28;20480;-68
2022/12/13 06:09:27;;;;;;;41.30;26.35;;;;;;;-8.27;100.00;100956.16;5061443;28;20032;-68
2022/12/13 06:11:53;;;;;;;44.08;27.52;;;;;;;-8.32;100.00;100960.03;5064962;28;20060;-68
2022/12/13 06:14:18;;;;;;;44.60;28.42;;;;;;;-8.27;100.00;100956.16;5062181;28;20052;-68
2022/12/13 06:16:44;;;;;;;41.33;26.55;;;;;;;-8.25;100.00;100959.75;5063241;28;20029;-68
2022/12/13 06:19:09;;;;;;;42.20;26.85;;;;;;;-8.26;100.00;100955.41;5062477;28;20032;-68
2022/12/13 06:21:34;;;;;;;41.95;26.63;;;;;;;-8.22;100.00;100954.88;5062273;28;20539;-68
2022/12/13 06:24:00;;;;;;;44.47;27.25;;;;;;;-8.27;100.00;100956.16;5064480;28;20473;-68
2022/12/13 06:26:25;;;;;;;43.65;27.58;;;;;;;-8.26;100.00;100952.84;5061437;28;20107;-68
2022/12/13 06:28:50;;;;;;;43.67;28.05;;;;;;;-8.23;100.00;100956.56;5064054;28;20033;-68
2022/12/13 06:31:16;;;;;;;42.83;27.35;;;;;;;-8.23;100.00;100958.22;5062349;28;20028;-70
2022/12/13 06:33:41;;;;;;;45.95;28.23;;;;;;;-8.23;100.00;100955.66;5058439;28;20033;-64
2022/12/13 06:36:07;;;;;;;42.53;27.38;;;;;;;-8.19;100.00;100957.69;5064602;28;20047;-65
2022/12/13 06:38:32;;;;;;;42.55;27.25;;;;;;;-8.27;100.00;100956.16;5065427;28;20035;-64
2022/12/13 06:41:15;;;;;;;44.55;28.42;;;;;;;-8.20;100.00;100953.31;5064742;28;20500;-67
2022/12/13 06:43:43;;;;;;;44.20;27.45;;;;;;;-8.28;100.00;100962.09;5065275;28;20478;-67
2022/12/13 06:46:08;;;;;;;43.05;28.08;;;;;;;-8.30;100.00;100961.97;5058699;28;20047;-68
2022/12/13 06:48:34;;;;;;;42.50;27.80;;;;;;;-8.27;100.00;100951.03;5064102;28;20491;-67
2022/12/13 06:51:04;;;;;;;43.80;28.20;;;;;;;-8.36;100.00;100958.88;5062134;28;20111;-65
2022/12/13 06:53:30;;;;;;;43.80;27.92;;;;;;;-8.27;100.00;100956.16;5056734;28;20024;-69
2022/12/13 06:55:56;;;;;;;46.85;30.38;;;;;;;-8.25;100.00;100950.38;5050540;28;20091;-68
2022/12/13 06:58:21;;;;;;;45.85;30.17;;;;;;;-8.23;100.00;100948.88;5060515;28;20033;-69
2022/12/13 07:00:47;;;;;;;45.78;30.38;;;;;;;-8.21;100.00;100946.41;5059845;28;20093;-64
2022/12/13 07:03:13;;;;;;;44.97;30.17;;;;;;;-8.17;100.00;100952.69;5065568;28;20036;-64
2022/12/13 07:05:38;;;;;;;46.15;31.20;;;;;;;-8.12;100.00;100947.16;5065662;28;20035;-64
2022/12/13 07:08:04;;;;;;;49.00;32.15;;;;;;;-8.02;100.00;100951.38;5061360;28;20075;-64
2022/12/13 07:10:30;;;;;;;48.60;31.45;;;;;;;-8.02;100.00;100955.56;5062195;28;20025;-65
2022/12/13 07:12:56;;;;;;;48.22;29.95;;;;;;;-8.07;100.00;100960.34;5059479;28;20033;-63
2022/12/13 07:15:21;;;;;;;47.42;29.63;;;;;;;-8.03;100.00;100961.50;5063707;28;20107;-64
2022/12/13 07:17:50;;;;;;;47.58;29.83;;;;;;;-8.02;100.00;100953.94;5061202;28;20025;-63
2022/12/13 07:20:18;;;;;;;44.67;29.73;;;;;;;-8.03;100.00;100951.25;5062041;28;20123;-63
2022/12/13 07:22:43;;;;;;;48.65;31.63;;;;;;;-7.97;100.00;100956.84;5062654;28;20029;-63
2022/12/13 07:25:09;;;;;;;46.60;30.33;;;;;;;-7.98;100.00;100950.84;5061070;28;20032;-63
2022/12/13 07:27:35;;;;;;;47.72;31.25;;;;;;;-7.99;100.00;100956.75;5064109;28;20032;-64
2022/12/13 07:30:00;;;;;;;48.15;30.38;;;;;;;-8.01;100.00;100955.69;5060686;28;20037;-64
2022/12/13 07:32:26;;;;;;;46.70;30.23;;;;;;;-8.02;100.00;100950.44;5063905;28;20064;-64
2022/12/13 07:34:52;;;;;;;46.90;29.08;;;;;;;-8.02;100.00;100947.88;5064816;28;20025;-64
2022/12/13 07:37:17;;;;;;;44.55;29.15;;;;;;;-8.07;100.00;100951.00;5058997;28;20021;-64
2022/12/13 07:39:42;;;;;;;46.63;29.10;;;;;;;-8.07;100.00;100960.34;5061060;28;20040;-64
2022/12/13 07:42:08;;;;;;;46.47;28.95;;;;;;;-8.06;100.00;100959.59;5060400;28;20032;-64
2022/12/13 07:44:33;;;;;;;47.47;29.48;;;;;;;-8.00;100.00;100956.63;5063182;28;20122;-63
2022/12/13 07:46:59;;;;;;;46.72;29.67;;;;;;;-8.01;100.00;100957.38;5061169;28;20157;-62
2022/12/13 07:49:24;;;;;;;48.80;30.50;;;;;;;-7.96;100.00;100956.97;5061741;28;20147;-63
2022/12/13 07:51:49;;;;;;;46.03;29.25;;;;;;;-7.92;100.00;100964.16;5060434;28;20041;-64
2022/12/13 07:54:15;;;;;;;46.97;29.88;;;;;;;-7.93;100.00;100966.59;5063768;28;20166;-67
2022/12/13 07:56:40;;;;;;;49.58;32.13;;;;;;;-7.79;100.00;100963.47;5059831;28;20021;-64
2022/12/13 07:59:06;;;;;;;48.45;31.17;;;;;;;-7.71;100.00;100980.34;5067161;28;20475;-66
2022/12/13 08:01:33;;;;;;;53.42;33.58;;;;;;;-7.54;100.00;100976.56;5064661;28;20095;-67
2022/12/13 08:03:59;;;;;;;50.40;33.50;;;;;;;-7.49;100.00;100966.66;5066455;28;20086;-66
2022/12/13 08:06:24;;;;;;;49.17;31.83;;;;;;;-7.45;100.00;100966.13;5069843;28;20096;-67
2022/12/13 08:08:54;;;;;;;50.20;31.88;;;;;;;-7.36;100.00;100966.81;5068583;28;20123;-65
2022/12/13 08:11:20;;;;;;;49.55;31.33;;;;;;;-7.21;100.00;100966.22;5066536;28;20115;-65
2022/12/13 08:13:45;;;;;;;49.53;31.77;;;;;;;-7.12;100.00;100963.47;5063974;28;20558;-64
2022/12/13 08:16:13;;;;;;;49.53;33.20;;;;;;;-6.91;100.00;100964.22;5062763;28;20127;-65
2022/12/13 08:18:39;;;;;;;55.90;35.35;;;;;;;-6.72;100.00;100964.84;5065276;28;20081;-64
2022/12/13 08:21:06;;;;;;;50.63;33.30;;;;;;;-6.64;100.00;100969.66;5064879;28;20025;-64
2022/12/13 08:23:33;;;;;;;49.92;32.50;;;;;;;-6.61;100.00;100968.22;5064028;28;20058;-65
2022/12/13 08:25:59;;;;;;;50.65;32.33;;;;;;;-6.51;100.00;100969.78;5071472;28;20024;-67
2022/12/13 08:28:25;;;;;;;50.90;33.35;;;;;;;-6.37;100.00;100974.28;5061834;28;20029;-66
2022/12/13 08:30:51;;;;;;;49.33;33.22;;;;;;;-6.17;100.00;100980.03;5065388;28;20282;-66
2022/12/13 08:33:17;;;;;;;49.88;32.20;;;;;;;-6.06;100.00;100979.13;5065373;28;20460;-65
2022/12/13 08:35:43;;;;;;;52.58;32.70;;;;;;;-6.02;100.00;100972.53;5065284;28;20407;-65
2022/12/13 08:38:09;;;;;;;49.20;32.72;;;;;;;-5.93;100.00;100980.00;5063073;28;20029;-65
2022/12/13 08:40:35;;;;;;;52.78;34.70;;;;;;;-5.64;100.00;100976.94;5066111;28;20043;-67
2022/12/13 08:43:01;;;;;;;51.67;34.63;;;;;;;-5.55;100.00;100974.13;5063165;28;20033;-65
2022/12/13 08:45:27;;;;;;;50.22;33.42;;;;;;;-5.51;100.00;100977.00;5059005;28;20109;-65
2022/12/13 08:47:53;;;;;;;48.97;33.47;;;;;;;-5.49;100.00;100982.28;5065914;28;20060;-65
2022/12/13 08:50:18;;;;;;;50.78;34.17;;;;;;;-5.40;100.00;100982.94;5064156;28;20035;-65
2022/12/13 08:52:44;;;;;;;49.15;33.47;;;;;;;-5.31;100.00;100981.00;5064670;28;20033;-66
2022/12/13 08:55:11;;;;;;;51.80;34.38;;;;;;;-5.27;100.00;100979.56;5063865;28;20123;-66
2022/12/13 08:57:38;;;;;;;49.72;33.50;;;;;;;-5.12;100.00;100990.91;5064009;28;20434;-66
2022/12/13 09:00:05;;;;;;;50.08;33.88;;;;;;;-4.76;100.00;101001.06;5064836;28;20039;-65
2022/12/13 09:02:30;;;;;;;49.78;33.45;;;;;;;-4.43;100.00;100999.88;5062648;28;20480;-65
2022/12/13 09:04:55;;;;;;;50.42;33.67;;;;;;;-4.16;100.00;100987.03;5066231;28;20037;-64
2022/12/13 09:07:21;;;;;;;49.88;33.67;;;;;;;-4.00;100.00;100993.19;5063363;28;20029;-65
2022/12/13 09:09:46;;;;;;;48.67;32.42;;;;;;;-4.03;100.00;100981.88;5064000;28;20116;-65
2022/12/13 09:12:11;;;;;;;47.55;31.83;;;;;;;-4.04;100.00;100990.41;5064725;28;20110;-65
2022/12/13 09:14:37;;;;;;;47.45;31.13;;;;;;;-4.06;100.00;100994.59;5063353;28;20112;-64
2022/12/13 09:17:03;;;;;;;48.55;31.70;;;;;;;-4.15;100.00;100985.34;5065971;28;20029;-65
2022/12/13 09:19:28;;;;;;;47.08;32.40;;;;;;;-4.14;100.00;100989.72;5063023;28;20108;-65
2022/12/13 09:21:53;;;;;;;47.97;32.17;;;;;;;-4.24;100.00;100994.28;5064186;28;20043;-65
2022/12/13 09:24:19;;;;;;;48.92;32.50;;;;;;;-4.17;100.00;100990.41;5063821;28;20109;-65
2022/12/13 09:26:45;;;;;;;46.28;31.33;;;;;;;-4.11;100.00;100989.91;5064120;28;20493;-64
2022/12/13 09:29:10;;;;;;;49.45;32.22;;;;;;;-4.06;100.00;100996.28;5064421;28;20081;-65
2022/12/13 09:31:36;;;;;;;47.75;32.20;;;;;;;-4.03;100.00;100991.31;5062936;28;20108;-64
2022/12/13 09:34:02;;;;;;;47.60;32.03;;;;;;;-3.90;100.00;100983.56;5065309;28;20056;-64
2022/12/13 09:36:27;;;;;;;48.53;31.65;;;;;;;-3.69;100.00;100991.78;5060826;28;20118;-65
2022/12/13 09:38:54;;;;;;;47.15;31.58;;;;;;;-3.64;100.00;100986.03;5065096;28;20035;-67
2022/12/13 09:41:34;;;;;;;47.28;31.60;;;;;;;-3.56;100.00;100992.59;5062968;28;20062;-64
2022/12/13 09:44:10;;;;;;;47.15;31.30;;;;;;;-3.26;100.00;100988.47;5053553;28;20574;-64
2022/12/13 09:46:42;;;;;;;45.88;30.95;;;;;;;-3.09;100.00;100986.00;5063338;28;20020;-63
2022/12/13 09:49:25;;;;;;;46.55;31.00;;;;;;;-2.89;100.00;100989.81;5060387;28;20025;-64
2022/12/13 09:51:54;;;;;;;48.42;31.75;;;;;;;-2.90;100.00;100981.16;5062078;28;20104;-64
2022/12/13 09:54:22;;;;;;;45.28;30.85;;;;;;;-2.69;100.00;100984.16;5066293;28;20473;-65
2022/12/13 09:56:53;;;;;;;45.58;29.48;;;;;;;-2.59;100.00;100992.47;5065539;28;20483;-65
2022/12/13 09:59:25;;;;;;;45.53;30.55;;;;;;;-2.30;100.00;100982.13;5062733;28;20061;-68
2022/12/13 10:01:51;;;;;;;45.15;30.02;;;;;;;-2.05;100.00;100990.41;5062733;28;20544;-64
2022/12/13 10:04:17;;;;;;;45.20;29.77;;;;;;;-2.03;100.00;100981.06;5061757;28;20150;-65
2022/12/13 10:06:42;;;;;;;44.35;29.00;;;;;;;-1.82;100.00;100976.19;5062502;28;20040;-63
2022/12/13 10:09:12;;;;;;;43.45;28.95;;;;;;;-1.66;100.00;100983.13;5065312;28;20036;-65
2022/12/13 10:11:46;;;;;;;43.75;28.60;;;;;;;-1.49;100.00;100978.88;5064592;28;20029;-66
2022/12/13 10:14:19;;;;;;;45.47;29.67;;;;;;;-1.11;100.00;100972.28;5065062;28;20056;-66
2022/12/13 10:16:49;;;;;;;43.30;28.40;;;;;;;-1.15;100.00;100967.75;5059985;28;20021;-64
2022/12/13 10:19:25;;;;;;;45.00;28.60;;;;;;;-1.15;100.00;100957.34;5060757;28;20463;-68
2022/12/13 10:21:50;;;;;;;43.67;28.58;;;;;;;-1.15;100.00;100944.38;5061904;28;20071;-69
2022/12/13 10:24:19;;;;;;;44.20;29.55;;;;;;;-1.01;100.00;100964.19;5063353;28;20033;-64
2022/12/13 10:26:45;;;;;;;43.72;28.08;;;;;;;-0.90;100.00;100967.38;5063469;28;20048;-64
2022/12/13 10:29:11;;;;;;;43.08;27.63;;;;;;;-0.86;100.00;100953.69;5059938;28;20060;-63
2022/12/13 10:31:43;;;;;;;42.70;28.38;;;;;;;-0.70;100.00;100945.00;5063297;28;20151;-68
2022/12/13 10:34:29;;;;;;;44.28;29.55;;;;;;;-0.34;100.00;100939.03;5059976;28;20489;-68
2022/12/13 10:36:55;;;;;;;42.85;26.73;;;;;;;0.19;100.00;100950.25;5061337;28;20023;-70
2022/12/13 10:39:41;;;;;;;41.33;27.23;;;;;;;0.71;100.00;100939.69;5066219;28;20071;-63
2022/12/13 10:42:13;;;;;;;40.90;26.52;;;;;;;1.13;100.00;100936.34;5062981;28;20028;-64
2022/12/13 10:44:39;;;;;;;41.30;27.10;;;;;;;1.04;100.00;100939.44;5061084;28;20036;-64
2022/12/13 10:47:23;;;;;;;42.53;27.30;;;;;;;1.35;100.00;100936.44;5060499;28;20063;-65
2022/12/13 10:49:49;;;;;;;41.20;26.25;;;;;;;2.25;100.00;100942.75;5059913;28;20121;-66
2022/12/13 10:52:39;;;;;;;40.05;25.58;;;;;;;2.99;100.00;100929.91;5064472;28;20048;-65
2022/12/13 10:55:21;;;;;;;39.75;25.73;;;;;;;3.30;100.00;100929.25;5063185;28;20029;-65
2022/12/13 10:57:56;;;;;;;38.83;25.35;;;;;;;3.94;100.00;100913.09;5061267;28;20025;-65
2022/12/13 11:00:31;;;;;;;39.08;25.27;;;;;;;4.01;100.00;100915.06;5058888;28;20104;-66
2022/12/13 11:02:56;;;;;;;37.75;23.85;;;;;;;4.39;100.00;100906.66;5061957;28;20021;-69
2022/12/13 11:05:32;;;;;;;37.60;23.08;;;;;;;4.41;100.00;100905.84;5060612;28;20036;-66
2022/12/13 11:08:26;;;;;;;38.05;24.52;;;;;;;4.61;100.00;100905.56;5062395;28;20055;-67
2022/12/13 11:10:58;;;;;;;39.63;24.38;;;;;;;5.19;100.00;100903.72;5059227;28;20024;-67
2022/12/13 11:13:41;;;;;;;35.88;23.15;;;;;;;5.62;100.00;100899.63;5061990;28;20029;-68